Aviation Digital Data Service (ADDS)

Output produced by METARs form (2111 UTC 16 February 2019)
found at http://www.aviationweather.gov/metar/data/
 
Forecast for: VTSC (NARATHIWAT , TH)
Text: TAF VTSC 161700Z 1618/1718 21004KT 9999 FEW020
Forecast period: 1800 UTC 16 February 2019 to 0300 UTC 17 February 2019
Forecast type: FROM: standard forecast or significant change
Winds: from the SSW (210 degrees) at 5 MPH (4 knots; 2.1 m/s)
Visibility: 6 or more miles 10+ km)
Ceiling: at least 12,000 feet AGL
Clouds: few clouds at 2000 feet AGL
Weather: no significant weather forecast for this period
Text: BECMG 1703/1705 09010KT
Forecast period: 0300 to 1300 UTC 17 February 2019
Forecast type: BECOMING: Conditions expected to become as follows by 0500 UTC 17 February 2019
Winds: from the E (90 degrees) at 12 MPH (10 knots; 5.1 m/s)
Visibility: 6 or more miles 10+ km)
Ceiling: at least 12,000 feet AGL
Clouds: few clouds at 2000 feet AGL
Weather: no significant weather forecast for this period
Text: BECMG 1713/1715 18004KT
Forecast period: 1300 to 1800 UTC 17 February 2019
Forecast type: BECOMING: Conditions expected to become as follows by 1500 UTC 17 February 2019
Winds: from the S (180 degrees) at 5 MPH (4 knots; 2.1 m/s)
Visibility: 6 or more miles 10+ km)
Ceiling: at least 12,000 feet AGL
Clouds: few clouds at 2000 feet AGL
Weather: no significant weather forecast for this period